sensor_id;sensor_type;location;lat;lon;timestamp;P1;durP1;ratioP1;P2;durP2;ratioP2
14121;SDS011;7139;48.114;11.442;2023-10-31T00:01:31;0.90;;;0.90;;
14121;SDS011;7139;48.114;11.442;2023-10-31T00:03:59;0.93;;;0.90;;
14121;SDS011;7139;48.114;11.442;2023-10-31T00:06:25;0.93;;;0.90;;
14121;SDS011;7139;48.114;11.442;2023-10-31T00:08:52;1.33;;;0.80;;
14121;SDS011;7139;48.114;11.442;2023-10-31T00:11:19;1.23;;;0.90;;
14121;SDS011;7139;48.114;11.442;2023-10-31T00:13:46;1.23;;;0.90;;
14121;SDS011;7139;48.114;11.442;2023-10-31T00:16:12;1.47;;;0.90;;
14121;SDS011;7139;48.114;11.442;2023-10-31T00:18:39;0.80;;;0.80;;
14121;SDS011;7139;48.114;11.442;2023-10-31T00:21:07;0.77;;;0.73;;
14121;SDS011;7139;48.114;11.442;2023-10-31T00:23:34;0.70;;;0.70;;
14121;SDS011;7139;48.114;11.442;2023-10-31T00:26:09;0.60;;;0.60;;
14121;SDS011;7139;48.114;11.442;2023-10-31T00:28:35;0.77;;;0.77;;
14121;SDS011;7139;48.114;11.442;2023-10-31T00:31:02;1.63;;;0.80;;
14121;SDS011;7139;48.114;11.442;2023-10-31T00:33:30;0.70;;;0.60;;
14121;SDS011;7139;48.114;11.442;2023-10-31T00:35:57;0.60;;;0.60;;
14121;SDS011;7139;48.114;11.442;2023-10-31T00:38:25;0.70;;;0.70;;
14121;SDS011;7139;48.114;11.442;2023-10-31T00:40:52;1.40;;;0.60;;
14121;SDS011;7139;48.114;11.442;2023-10-31T00:43:19;0.70;;;0.70;;
14121;SDS011;7139;48.114;11.442;2023-10-31T00:45:45;1.13;;;0.70;;
14121;SDS011;7139;48.114;11.442;2023-10-31T00:48:12;0.70;;;0.50;;
14121;SDS011;7139;48.114;11.442;2023-10-31T00:50:39;0.53;;;0.53;;
14121;SDS011;7139;48.114;11.442;2023-10-31T00:53:06;0.60;;;0.60;;
14121;SDS011;7139;48.114;11.442;2023-10-31T00:55:35;1.13;;;0.60;;
14121;SDS011;7139;48.114;11.442;2023-10-31T00:58:02;0.50;;;0.47;;
14121;SDS011;7139;48.114;11.442;2023-10-31T01:00:29;1.03;;;0.60;;
14121;SDS011;7139;48.114;11.442;2023-10-31T01:02:56;0.60;;;0.60;;
14121;SDS011;7139;48.114;11.442;2023-10-31T01:05:23;0.50;;;0.50;;
14121;SDS011;7139;48.114;11.442;2023-10-31T01:07:51;0.60;;;0.60;;
14121;SDS011;7139;48.114;11.442;2023-10-31T01:10:18;0.60;;;0.60;;
14121;SDS011;7139;48.114;11.442;2023-10-31T01:12:46;0.40;;;0.40;;
14121;SDS011;7139;48.114;11.442;2023-10-31T01:15:13;0.50;;;0.50;;
14121;SDS011;7139;48.114;11.442;2023-10-31T01:17:40;0.80;;;0.53;;
14121;SDS011;7139;48.114;11.442;2023-10-31T01:20:07;0.50;;;0.50;;
14121;SDS011;7139;48.114;11.442;2023-10-31T01:22:35;0.83;;;0.60;;
14121;SDS011;7139;48.114;11.442;2023-10-31T01:25:02;0.40;;;0.40;;
14121;SDS011;7139;48.114;11.442;2023-10-31T01:27:29;0.63;;;0.50;;
14121;SDS011;7139;48.114;11.442;2023-10-31T01:29:57;0.40;;;0.40;;
14121;SDS011;7139;48.114;11.442;2023-10-31T01:32:24;0.50;;;0.50;;
14121;SDS011;7139;48.114;11.442;2023-10-31T01:34:50;0.53;;;0.50;;
14121;SDS011;7139;48.114;11.442;2023-10-31T01:37:17;0.50;;;0.50;;
14121;SDS011;7139;48.114;11.442;2023-10-31T01:39:45;0.60;;;0.57;;
14121;SDS011;7139;48.114;11.442;2023-10-31T01:42:13;0.50;;;0.50;;
14121;SDS011;7139;48.114;11.442;2023-10-31T01:44:40;0.50;;;0.50;;
14121;SDS011;7139;48.114;11.442;2023-10-31T01:47:09;2.77;;;0.70;;
14121;SDS011;7139;48.114;11.442;2023-10-31T01:49:35;0.50;;;0.50;;
14121;SDS011;7139;48.114;11.442;2023-10-31T01:52:03;0.50;;;0.50;;
14121;SDS011;7139;48.114;11.442;2023-10-31T01:54:30;0.37;;;0.37;;
14121;SDS011;7139;48.114;11.442;2023-10-31T01:56:58;0.50;;;0.50;;
14121;SDS011;7139;48.114;11.442;2023-10-31T01:59:26;0.50;;;0.50;;
14121;SDS011;7139;48.114;11.442;2023-10-31T02:01:53;0.40;;;0.40;;
14121;SDS011;7139;48.114;11.442;2023-10-31T02:04:22;0.63;;;0.40;;
14121;SDS011;7139;48.114;11.442;2023-10-31T02:06:49;0.83;;;0.50;;
14121;SDS011;7139;48.114;11.442;2023-10-31T02:09:16;0.50;;;0.50;;
14121;SDS011;7139;48.114;11.442;2023-10-31T02:11:43;0.33;;;0.33;;
14121;SDS011;7139;48.114;11.442;2023-10-31T02:14:10;0.43;;;0.43;;
14121;SDS011;7139;48.114;11.442;2023-10-31T02:16:36;1.17;;;0.50;;
14121;SDS011;7139;48.114;11.442;2023-10-31T02:19:03;0.40;;;0.40;;
14121;SDS011;7139;48.114;11.442;2023-10-31T02:21:32;0.40;;;0.40;;
14121;SDS011;7139;48.114;11.442;2023-10-31T02:24:01;0.40;;;0.40;;
14121;SDS011;7139;48.114;11.442;2023-10-31T02:26:29;0.47;;;0.47;;
14121;SDS011;7139;48.114;11.442;2023-10-31T02:28:56;0.60;;;0.60;;
14121;SDS011;7139;48.114;11.442;2023-10-31T02:31:23;0.53;;;0.50;;
14121;SDS011;7139;48.114;11.442;2023-10-31T02:33:50;0.40;;;0.40;;
14121;SDS011;7139;48.114;11.442;2023-10-31T02:36:16;1.20;;;0.40;;
14121;SDS011;7139;48.114;11.442;2023-10-31T02:38:43;0.43;;;0.43;;
14121;SDS011;7139;48.114;11.442;2023-10-31T02:41:12;1.37;;;0.40;;
14121;SDS011;7139;48.114;11.442;2023-10-31T02:43:39;0.37;;;0.37;;
14121;SDS011;7139;48.114;11.442;2023-10-31T02:46:06;0.40;;;0.40;;
14121;SDS011;7139;48.114;11.442;2023-10-31T02:48:33;0.70;;;0.50;;
14121;SDS011;7139;48.114;11.442;2023-10-31T02:51:04;0.50;;;0.50;;
14121;SDS011;7139;48.114;11.442;2023-10-31T02:53:31;0.40;;;0.40;;
14121;SDS011;7139;48.114;11.442;2023-10-31T02:55:58;0.40;;;0.40;;
14121;SDS011;7139;48.114;11.442;2023-10-31T02:58:26;0.70;;;0.30;;
14121;SDS011;7139;48.114;11.442;2023-10-31T03:00:52;1.47;;;0.50;;
14121;SDS011;7139;48.114;11.442;2023-10-31T03:03:19;0.40;;;0.40;;
14121;SDS011;7139;48.114;11.442;2023-10-31T03:05:46;0.30;;;0.30;;
14121;SDS011;7139;48.114;11.442;2023-10-31T03:08:12;0.53;;;0.40;;
14121;SDS011;7139;48.114;11.442;2023-10-31T03:10:40;0.40;;;0.40;;
14121;SDS011;7139;48.114;11.442;2023-10-31T03:13:07;0.40;;;0.40;;
14121;SDS011;7139;48.114;11.442;2023-10-31T03:15:35;0.53;;;0.40;;
14121;SDS011;7139;48.114;11.442;2023-10-31T03:18:02;1.30;;;0.43;;
14121;SDS011;7139;48.114;11.442;2023-10-31T03:20:28;0.40;;;0.40;;
14121;SDS011;7139;48.114;11.442;2023-10-31T03:22:56;0.40;;;0.40;;
14121;SDS011;7139;48.114;11.442;2023-10-31T03:25:22;0.43;;;0.43;;
14121;SDS011;7139;48.114;11.442;2023-10-31T03:27:49;1.17;;;0.50;;
14121;SDS011;7139;48.114;11.442;2023-10-31T03:30:16;0.93;;;0.63;;
14121;SDS011;7139;48.114;11.442;2023-10-31T03:32:44;0.30;;;0.30;;
14121;SDS011;7139;48.114;11.442;2023-10-31T03:35:11;0.53;;;0.53;;
14121;SDS011;7139;48.114;11.442;2023-10-31T03:37:37;0.60;;;0.50;;
14121;SDS011;7139;48.114;11.442;2023-10-31T03:40:07;0.50;;;0.50;;
14121;SDS011;7139;48.114;11.442;2023-10-31T03:42:34;1.17;;;0.50;;
14121;SDS011;7139;48.114;11.442;2023-10-31T03:45:01;0.50;;;0.50;;
14121;SDS011;7139;48.114;11.442;2023-10-31T03:47:28;0.50;;;0.50;;
14121;SDS011;7139;48.114;11.442;2023-10-31T03:49:56;0.50;;;0.50;;
14121;SDS011;7139;48.114;11.442;2023-10-31T03:52:22;0.50;;;0.50;;
14121;SDS011;7139;48.114;11.442;2023-10-31T03:54:49;0.60;;;0.60;;
14121;SDS011;7139;48.114;11.442;2023-10-31T03:57:16;0.50;;;0.50;;
14121;SDS011;7139;48.114;11.442;2023-10-31T03:59:43;1.03;;;0.70;;
14121;SDS011;7139;48.114;11.442;2023-10-31T04:02:10;0.50;;;0.50;;
14121;SDS011;7139;48.114;11.442;2023-10-31T04:04:36;0.60;;;0.60;;
14121;SDS011;7139;48.114;11.442;2023-10-31T04:07:04;2.03;;;0.73;;
14121;SDS011;7139;48.114;11.442;2023-10-31T04:09:32;0.60;;;0.60;;
14121;SDS011;7139;48.114;11.442;2023-10-31T04:11:58;0.67;;;0.67;;
14121;SDS011;7139;48.114;11.442;2023-10-31T04:14:25;1.17;;;0.70;;
14121;SDS011;7139;48.114;11.442;2023-10-31T04:16:52;1.03;;;0.73;;
14121;SDS011;7139;48.114;11.442;2023-10-31T04:19:19;0.73;;;0.60;;
14121;SDS011;7139;48.114;11.442;2023-10-31T04:21:45;1.00;;;0.60;;
14121;SDS011;7139;48.114;11.442;2023-10-31T04:24:13;0.70;;;0.70;;
14121;SDS011;7139;48.114;11.442;2023-10-31T04:26:40;1.47;;;0.60;;
14121;SDS011;7139;48.114;11.442;2023-10-31T04:29:07;0.97;;;0.70;;
14121;SDS011;7139;48.114;11.442;2023-10-31T04:31:34;0.60;;;0.60;;
14121;SDS011;7139;48.114;11.442;2023-10-31T04:34:00;0.60;;;0.60;;
14121;SDS011;7139;48.114;11.442;2023-10-31T04:36:27;1.33;;;0.73;;
14121;SDS011;7139;48.114;11.442;2023-10-31T04:38:54;0.80;;;0.77;;
14121;SDS011;7139;48.114;11.442;2023-10-31T04:41:22;1.27;;;0.60;;
14121;SDS011;7139;48.114;11.442;2023-10-31T04:43:49;1.20;;;0.87;;
14121;SDS011;7139;48.114;11.442;2023-10-31T04:46:15;1.70;;;0.87;;
14121;SDS011;7139;48.114;11.442;2023-10-31T04:48:42;1.17;;;0.83;;
14121;SDS011;7139;48.114;11.442;2023-10-31T04:51:09;1.13;;;0.70;;
14121;SDS011;7139;48.114;11.442;2023-10-31T04:53:36;3.27;;;1.00;;
14121;SDS011;7139;48.114;11.442;2023-10-31T04:56:03;1.03;;;0.80;;
14121;SDS011;7139;48.114;11.442;2023-10-31T04:58:31;0.97;;;0.70;;
14121;SDS011;7139;48.114;11.442;2023-10-31T05:00:58;2.67;;;1.00;;
14121;SDS011;7139;48.114;11.442;2023-10-31T05:03:24;1.17;;;0.73;;
14121;SDS011;7139;48.114;11.442;2023-10-31T05:05:51;0.93;;;0.70;;
14121;SDS011;7139;48.114;11.442;2023-10-31T05:08:18;1.13;;;1.00;;
14121;SDS011;7139;48.114;11.442;2023-10-31T05:10:45;0.70;;;0.70;;
14121;SDS011;7139;48.114;11.442;2023-10-31T05:13:12;2.17;;;0.80;;
14121;SDS011;7139;48.114;11.442;2023-10-31T05:15:40;1.60;;;1.20;;
14121;SDS011;7139;48.114;11.442;2023-10-31T05:18:07;2.70;;;0.97;;
14121;SDS011;7139;48.114;11.442;2023-10-31T05:20:34;1.10;;;0.87;;
14121;SDS011;7139;48.114;11.442;2023-10-31T05:23:00;1.60;;;0.83;;
14121;SDS011;7139;48.114;11.442;2023-10-31T05:25:28;2.23;;;0.90;;
14121;SDS011;7139;48.114;11.442;2023-10-31T05:27:54;1.30;;;0.80;;
14121;SDS011;7139;48.114;11.442;2023-10-31T05:30:21;0.90;;;0.90;;
14121;SDS011;7139;48.114;11.442;2023-10-31T05:32:50;1.30;;;0.87;;
14121;SDS011;7139;48.114;11.442;2023-10-31T05:35:17;1.10;;;1.00;;
14121;SDS011;7139;48.114;11.442;2023-10-31T05:37:45;1.47;;;0.93;;
14121;SDS011;7139;48.114;11.442;2023-10-31T05:40:12;1.87;;;1.00;;
14121;SDS011;7139;48.114;11.442;2023-10-31T05:42:39;1.93;;;1.30;;
14121;SDS011;7139;48.114;11.442;2023-10-31T05:45:06;1.37;;;0.90;;
14121;SDS011;7139;48.114;11.442;2023-10-31T05:47:33;1.13;;;0.97;;
14121;SDS011;7139;48.114;11.442;2023-10-31T05:50:01;2.70;;;1.00;;
14121;SDS011;7139;48.114;11.442;2023-10-31T05:52:28;1.67;;;0.90;;
14121;SDS011;7139;48.114;11.442;2023-10-31T05:54:55;1.13;;;1.00;;
14121;SDS011;7139;48.114;11.442;2023-10-31T05:57:22;1.27;;;0.90;;
14121;SDS011;7139;48.114;11.442;2023-10-31T05:59:49;1.20;;;1.00;;
14121;SDS011;7139;48.114;11.442;2023-10-31T06:02:15;2.30;;;1.00;;
14121;SDS011;7139;48.114;11.442;2023-10-31T06:04:42;1.10;;;0.97;;
14121;SDS011;7139;48.114;11.442;2023-10-31T06:07:11;1.20;;;1.00;;
14121;SDS011;7139;48.114;11.442;2023-10-31T06:09:38;1.33;;;0.90;;
14121;SDS011;7139;48.114;11.442;2023-10-31T06:12:05;0.90;;;0.90;;
14121;SDS011;7139;48.114;11.442;2023-10-31T06:14:31;1.13;;;0.90;;
14121;SDS011;7139;48.114;11.442;2023-10-31T06:16:58;1.23;;;1.00;;
14121;SDS011;7139;48.114;11.442;2023-10-31T06:19:26;1.03;;;0.97;;
14121;SDS011;7139;48.114;11.442;2023-10-31T06:21:53;1.30;;;0.90;;
14121;SDS011;7139;48.114;11.442;2023-10-31T06:24:21;1.50;;;0.87;;
14121;SDS011;7139;48.114;11.442;2023-10-31T06:26:47;1.70;;;1.00;;
14121;SDS011;7139;48.114;11.442;2023-10-31T06:29:14;1.10;;;1.00;;
14121;SDS011;7139;48.114;11.442;2023-10-31T06:31:41;1.07;;;0.90;;
14121;SDS011;7139;48.114;11.442;2023-10-31T06:34:07;1.00;;;0.90;;
14121;SDS011;7139;48.114;11.442;2023-10-31T06:36:34;1.30;;;1.00;;
14121;SDS011;7139;48.114;11.442;2023-10-31T06:39:01;2.03;;;1.30;;
14121;SDS011;7139;48.114;11.442;2023-10-31T06:41:29;1.10;;;1.00;;
14121;SDS011;7139;48.114;11.442;2023-10-31T06:43:56;1.60;;;1.10;;
14121;SDS011;7139;48.114;11.442;2023-10-31T06:46:23;2.60;;;1.03;;
14121;SDS011;7139;48.114;11.442;2023-10-31T06:48:50;1.67;;;1.47;;
14121;SDS011;7139;48.114;11.442;2023-10-31T06:51:16;2.13;;;1.93;;
14121;SDS011;7139;48.114;11.442;2023-10-31T06:53:43;3.93;;;1.37;;
14121;SDS011;7139;48.114;11.442;2023-10-31T06:56:10;1.07;;;1.00;;
14121;SDS011;7139;48.114;11.442;2023-10-31T06:58:38;1.37;;;1.10;;
14121;SDS011;7139;48.114;11.442;2023-10-31T07:01:05;1.67;;;0.93;;
14121;SDS011;7139;48.114;11.442;2023-10-31T07:03:31;2.43;;;1.30;;
14121;SDS011;7139;48.114;11.442;2023-10-31T07:05:58;1.13;;;1.00;;
14121;SDS011;7139;48.114;11.442;2023-10-31T07:08:25;1.33;;;1.23;;
14121;SDS011;7139;48.114;11.442;2023-10-31T07:10:52;2.20;;;1.20;;
14121;SDS011;7139;48.114;11.442;2023-10-31T07:13:19;1.63;;;1.50;;
14121;SDS011;7139;48.114;11.442;2023-10-31T07:15:47;1.87;;;1.17;;
14121;SDS011;7139;48.114;11.442;2023-10-31T07:18:13;2.03;;;1.33;;
14121;SDS011;7139;48.114;11.442;2023-10-31T07:20:40;1.30;;;1.20;;
14121;SDS011;7139;48.114;11.442;2023-10-31T07:23:07;2.97;;;1.60;;
14121;SDS011;7139;48.114;11.442;2023-10-31T07:25:34;1.47;;;1.00;;
14121;SDS011;7139;48.114;11.442;2023-10-31T07:28:00;2.03;;;1.30;;
14121;SDS011;7139;48.114;11.442;2023-10-31T07:30:27;3.80;;;2.70;;
14121;SDS011;7139;48.114;11.442;2023-10-31T07:32:56;2.80;;;1.40;;
14121;SDS011;7139;48.114;11.442;2023-10-31T07:35:23;1.90;;;1.00;;
14121;SDS011;7139;48.114;11.442;2023-10-31T07:37:49;2.33;;;1.30;;
14121;SDS011;7139;48.114;11.442;2023-10-31T07:40:16;1.40;;;1.30;;
14121;SDS011;7139;48.114;11.442;2023-10-31T07:42:43;2.27;;;1.40;;
14121;SDS011;7139;48.114;11.442;2023-10-31T07:45:10;1.30;;;1.10;;
14121;SDS011;7139;48.114;11.442;2023-10-31T07:47:36;1.93;;;1.13;;
14121;SDS011;7139;48.114;11.442;2023-10-31T07:50:05;1.63;;;1.20;;
14121;SDS011;7139;48.114;11.442;2023-10-31T07:52:32;2.30;;;1.10;;
14121;SDS011;7139;48.114;11.442;2023-10-31T07:54:59;2.30;;;1.50;;
14121;SDS011;7139;48.114;11.442;2023-10-31T07:57:26;2.30;;;1.53;;
14121;SDS011;7139;48.114;11.442;2023-10-31T07:59:52;3.93;;;1.27;;
14121;SDS011;7139;48.114;11.442;2023-10-31T08:02:19;2.07;;;1.30;;
14121;SDS011;7139;48.114;11.442;2023-10-31T08:04:46;1.60;;;1.50;;
14121;SDS011;7139;48.114;11.442;2023-10-31T08:07:14;1.83;;;1.20;;
14121;SDS011;7139;48.114;11.442;2023-10-31T08:09:40;2.30;;;1.20;;
14121;SDS011;7139;48.114;11.442;2023-10-31T08:12:07;1.73;;;1.10;;
14121;SDS011;7139;48.114;11.442;2023-10-31T08:14:35;3.20;;;1.50;;
14121;SDS011;7139;48.114;11.442;2023-10-31T08:17:02;2.00;;;1.03;;
14121;SDS011;7139;48.114;11.442;2023-10-31T08:19:29;1.63;;;1.20;;
14121;SDS011;7139;48.114;11.442;2023-10-31T08:21:55;1.17;;;1.07;;
14121;SDS011;7139;48.114;11.442;2023-10-31T08:24:23;2.33;;;1.30;;
14121;SDS011;7139;48.114;11.442;2023-10-31T08:26:50;1.53;;;1.13;;
14121;SDS011;7139;48.114;11.442;2023-10-31T08:29:17;3.13;;;1.30;;
14121;SDS011;7139;48.114;11.442;2023-10-31T08:31:43;2.03;;;1.40;;
14121;SDS011;7139;48.114;11.442;2023-10-31T08:34:10;3.73;;;1.03;;
14121;SDS011;7139;48.114;11.442;2023-10-31T08:36:37;5.03;;;1.30;;
14121;SDS011;7139;48.114;11.442;2023-10-31T08:39:04;1.33;;;0.90;;
14121;SDS011;7139;48.114;11.442;2023-10-31T08:41:32;1.93;;;1.20;;
14121;SDS011;7139;48.114;11.442;2023-10-31T08:43:59;1.67;;;1.20;;
14121;SDS011;7139;48.114;11.442;2023-10-31T08:46:26;2.03;;;1.30;;
14121;SDS011;7139;48.114;11.442;2023-10-31T08:48:53;2.10;;;1.30;;
14121;SDS011;7139;48.114;11.442;2023-10-31T08:51:20;2.60;;;1.17;;
14121;SDS011;7139;48.114;11.442;2023-10-31T08:53:48;2.27;;;1.40;;
14121;SDS011;7139;48.114;11.442;2023-10-31T08:56:15;3.43;;;1.50;;
14121;SDS011;7139;48.114;11.442;2023-10-31T08:58:43;3.17;;;1.87;;
14121;SDS011;7139;48.114;11.442;2023-10-31T09:01:09;2.60;;;1.30;;
14121;SDS011;7139;48.114;11.442;2023-10-31T09:03:36;2.50;;;1.30;;
14121;SDS011;7139;48.114;11.442;2023-10-31T09:06:03;1.60;;;1.20;;
14121;SDS011;7139;48.114;11.442;2023-10-31T09:08:30;3.73;;;1.50;;
14121;SDS011;7139;48.114;11.442;2023-10-31T09:10:59;3.70;;;1.43;;
14121;SDS011;7139;48.114;11.442;2023-10-31T09:13:26;2.10;;;1.30;;
14121;SDS011;7139;48.114;11.442;2023-10-31T09:15:54;5.83;;;1.40;;
14121;SDS011;7139;48.114;11.442;2023-10-31T09:18:21;2.17;;;1.60;;
14121;SDS011;7139;48.114;11.442;2023-10-31T09:20:49;2.07;;;1.10;;
14121;SDS011;7139;48.114;11.442;2023-10-31T09:23:15;2.20;;;1.17;;
14121;SDS011;7139;48.114;11.442;2023-10-31T09:25:42;2.37;;;1.20;;
14121;SDS011;7139;48.114;11.442;2023-10-31T09:28:09;2.47;;;1.37;;
14121;SDS011;7139;48.114;11.442;2023-10-31T09:30:36;4.17;;;1.50;;
14121;SDS011;7139;48.114;11.442;2023-10-31T09:33:04;2.50;;;1.43;;
14121;SDS011;7139;48.114;11.442;2023-10-31T09:35:34;3.53;;;1.30;;
14121;SDS011;7139;48.114;11.442;2023-10-31T09:38:01;3.13;;;1.30;;
14121;SDS011;7139;48.114;11.442;2023-10-31T09:40:27;2.80;;;1.37;;
14121;SDS011;7139;48.114;11.442;2023-10-31T09:42:54;1.43;;;1.33;;
14121;SDS011;7139;48.114;11.442;2023-10-31T09:45:21;1.90;;;1.20;;
14121;SDS011;7139;48.114;11.442;2023-10-31T09:47:48;3.93;;;1.20;;
14121;SDS011;7139;48.114;11.442;2023-10-31T09:50:16;3.93;;;1.10;;
14121;SDS011;7139;48.114;11.442;2023-10-31T09:52:43;2.13;;;1.13;;
14121;SDS011;7139;48.114;11.442;2023-10-31T09:55:11;3.23;;;1.10;;
14121;SDS011;7139;48.114;11.442;2023-10-31T09:57:38;2.97;;;1.57;;
14121;SDS011;7139;48.114;11.442;2023-10-31T10:00:05;1.23;;;0.97;;
14121;SDS011;7139;48.114;11.442;2023-10-31T10:02:33;2.23;;;1.17;;
14121;SDS011;7139;48.114;11.442;2023-10-31T10:05:00;2.00;;;1.10;;
14121;SDS011;7139;48.114;11.442;2023-10-31T10:07:29;4.00;;;1.23;;
14121;SDS011;7139;48.114;11.442;2023-10-31T10:09:56;2.43;;;1.23;;
14121;SDS011;7139;48.114;11.442;2023-10-31T10:12:24;3.93;;;1.80;;
14121;SDS011;7139;48.114;11.442;2023-10-31T10:14:50;3.00;;;1.37;;
14121;SDS011;7139;48.114;11.442;2023-10-31T10:17:20;3.27;;;1.00;;
14121;SDS011;7139;48.114;11.442;2023-10-31T10:19:48;3.20;;;1.30;;
14121;SDS011;7139;48.114;11.442;2023-10-31T10:22:33;3.53;;;1.77;;
14121;SDS011;7139;48.114;11.442;2023-10-31T10:25:03;1.70;;;1.00;;
14121;SDS011;7139;48.114;11.442;2023-10-31T10:27:31;3.00;;;1.60;;
14121;SDS011;7139;48.114;11.442;2023-10-31T10:29:57;2.40;;;1.20;;
14121;SDS011;7139;48.114;11.442;2023-10-31T10:32:24;2.60;;;1.10;;
14121;SDS011;7139;48.114;11.442;2023-10-31T10:34:51;1.93;;;1.20;;
14121;SDS011;7139;48.114;11.442;2023-10-31T10:37:18;2.37;;;1.13;;
14121;SDS011;7139;48.114;11.442;2023-10-31T10:39:47;2.10;;;1.20;;
14121;SDS011;7139;48.114;11.442;2023-10-31T10:42:14;1.57;;;1.10;;
14121;SDS011;7139;48.114;11.442;2023-10-31T10:44:44;2.57;;;1.10;;
14121;SDS011;7139;48.114;11.442;2023-10-31T10:47:12;1.80;;;1.13;;
14121;SDS011;7139;48.114;11.442;2023-10-31T10:49:41;2.07;;;1.20;;
14121;SDS011;7139;48.114;11.442;2023-10-31T10:52:13;1.97;;;1.03;;
14121;SDS011;7139;48.114;11.442;2023-10-31T10:54:52;2.20;;;1.20;;
14121;SDS011;7139;48.114;11.442;2023-10-31T10:57:21;2.00;;;1.27;;
14121;SDS011;7139;48.114;11.442;2023-10-31T10:59:58;2.93;;;1.30;;
14121;SDS011;7139;48.114;11.442;2023-10-31T11:02:29;2.17;;;1.20;;
14121;SDS011;7139;48.114;11.442;2023-10-31T11:04:56;2.67;;;1.23;;
14121;SDS011;7139;48.114;11.442;2023-10-31T11:07:24;2.03;;;1.13;;
14121;SDS011;7139;48.114;11.442;2023-10-31T11:09:54;3.40;;;1.27;;
14121;SDS011;7139;48.114;11.442;2023-10-31T11:12:22;3.13;;;1.20;;
14121;SDS011;7139;48.114;11.442;2023-10-31T11:14:49;1.77;;;1.17;;
14121;SDS011;7139;48.114;11.442;2023-10-31T11:17:24;2.10;;;1.10;;
14121;SDS011;7139;48.114;11.442;2023-10-31T11:19:54;3.07;;;1.50;;
14121;SDS011;7139;48.114;11.442;2023-10-31T11:22:22;2.97;;;2.03;;
14121;SDS011;7139;48.114;11.442;2023-10-31T11:24:49;1.93;;;1.00;;
14121;SDS011;7139;48.114;11.442;2023-10-31T11:27:17;2.03;;;1.30;;
14121;SDS011;7139;48.114;11.442;2023-10-31T11:29:44;3.77;;;1.20;;
14121;SDS011;7139;48.114;11.442;2023-10-31T11:32:13;2.17;;;1.40;;
14121;SDS011;7139;48.114;11.442;2023-10-31T11:34:41;2.63;;;1.20;;
14121;SDS011;7139;48.114;11.442;2023-10-31T11:37:24;1.03;;;1.00;;
14121;SDS011;7139;48.114;11.442;2023-10-31T11:42:43;3.53;;;1.40;;
14121;SDS011;7139;48.114;11.442;2023-10-31T11:45:10;1.93;;;1.40;;
14121;SDS011;7139;48.114;11.442;2023-10-31T11:47:47;2.00;;;1.10;;
14121;SDS011;7139;48.114;11.442;2023-10-31T11:50:14;2.40;;;1.20;;
14121;SDS011;7139;48.114;11.442;2023-10-31T11:52:41;3.10;;;1.30;;
14121;SDS011;7139;48.114;11.442;2023-10-31T11:55:08;2.67;;;1.40;;
14121;SDS011;7139;48.114;11.442;2023-10-31T11:57:36;3.57;;;1.20;;
14121;SDS011;7139;48.114;11.442;2023-10-31T12:00:05;2.00;;;1.20;;
14121;SDS011;7139;48.114;11.442;2023-10-31T12:02:34;1.87;;;1.10;;
14121;SDS011;7139;48.114;11.442;2023-10-31T12:05:10;1.20;;;1.00;;
14121;SDS011;7139;48.114;11.442;2023-10-31T12:07:42;2.27;;;1.00;;
14121;SDS011;7139;48.114;11.442;2023-10-31T12:10:09;1.30;;;0.93;;
14121;SDS011;7139;48.114;11.442;2023-10-31T12:12:36;2.33;;;1.07;;
14121;SDS011;7139;48.114;11.442;2023-10-31T12:15:08;2.40;;;1.10;;
14121;SDS011;7139;48.114;11.442;2023-10-31T12:17:35;2.17;;;0.93;;
14121;SDS011;7139;48.114;11.442;2023-10-31T12:20:03;1.23;;;1.10;;
14121;SDS011;7139;48.114;11.442;2023-10-31T12:22:31;1.60;;;1.17;;
14121;SDS011;7139;48.114;11.442;2023-10-31T12:25:01;3.43;;;1.40;;
14121;SDS011;7139;48.114;11.442;2023-10-31T12:27:41;2.33;;;1.20;;
14121;SDS011;7139;48.114;11.442;2023-10-31T12:30:11;1.00;;;1.00;;
14121;SDS011;7139;48.114;11.442;2023-10-31T12:32:39;3.03;;;1.50;;
14121;SDS011;7139;48.114;11.442;2023-10-31T12:35:06;3.40;;;1.67;;
14121;SDS011;7139;48.114;11.442;2023-10-31T12:37:35;2.03;;;1.10;;
14121;SDS011;7139;48.114;11.442;2023-10-31T12:40:02;1.20;;;0.97;;
14121;SDS011;7139;48.114;11.442;2023-10-31T12:42:30;0.90;;;0.87;;
14121;SDS011;7139;48.114;11.442;2023-10-31T12:44:58;0.90;;;0.90;;
14121;SDS011;7139;48.114;11.442;2023-10-31T12:47:26;1.90;;;1.00;;
14121;SDS011;7139;48.114;11.442;2023-10-31T12:50:06;2.53;;;1.63;;
14121;SDS011;7139;48.114;11.442;2023-10-31T12:52:50;2.47;;;1.40;;
14121;SDS011;7139;48.114;11.442;2023-10-31T12:55:19;1.03;;;0.90;;
14121;SDS011;7139;48.114;11.442;2023-10-31T12:57:47;0.90;;;0.70;;
14121;SDS011;7139;48.114;11.442;2023-10-31T13:00:15;0.80;;;0.80;;
14121;SDS011;7139;48.114;11.442;2023-10-31T13:02:50;3.73;;;2.40;;
14121;SDS011;7139;48.114;11.442;2023-10-31T13:05:18;0.93;;;0.87;;
14121;SDS011;7139;48.114;11.442;2023-10-31T13:07:48;1.63;;;1.00;;
14121;SDS011;7139;48.114;11.442;2023-10-31T13:10:16;1.47;;;1.10;;
14121;SDS011;7139;48.114;11.442;2023-10-31T13:12:43;0.80;;;0.80;;
14121;SDS011;7139;48.114;11.442;2023-10-31T13:15:11;0.73;;;0.70;;
14121;SDS011;7139;48.114;11.442;2023-10-31T13:17:38;2.37;;;1.50;;
14121;SDS011;7139;48.114;11.442;2023-10-31T13:20:10;1.33;;;0.90;;
14121;SDS011;7139;48.114;11.442;2023-10-31T13:22:41;1.30;;;1.00;;
14121;SDS011;7139;48.114;11.442;2023-10-31T13:25:08;1.10;;;0.90;;
14121;SDS011;7139;48.114;11.442;2023-10-31T13:27:36;1.53;;;0.93;;
14121;SDS011;7139;48.114;11.442;2023-10-31T13:30:04;0.87;;;0.80;;
14121;SDS011;7139;48.114;11.442;2023-10-31T13:32:31;1.57;;;0.90;;
14121;SDS011;7139;48.114;11.442;2023-10-31T13:34:58;0.80;;;0.80;;
14121;SDS011;7139;48.114;11.442;2023-10-31T13:37:27;0.97;;;0.87;;
14121;SDS011;7139;48.114;11.442;2023-10-31T13:39:53;1.47;;;0.97;;
14121;SDS011;7139;48.114;11.442;2023-10-31T13:42:20;2.07;;;1.87;;
14121;SDS011;7139;48.114;11.442;2023-10-31T13:44:47;1.10;;;1.00;;
14121;SDS011;7139;48.114;11.442;2023-10-31T13:47:14;1.10;;;0.90;;
14121;SDS011;7139;48.114;11.442;2023-10-31T13:49:41;2.17;;;0.87;;
14121;SDS011;7139;48.114;11.442;2023-10-31T13:52:07;0.97;;;0.90;;
14121;SDS011;7139;48.114;11.442;2023-10-31T13:54:35;1.10;;;0.90;;
14121;SDS011;7139;48.114;11.442;2023-10-31T13:57:02;0.97;;;0.80;;
14121;SDS011;7139;48.114;11.442;2023-10-31T13:59:29;3.30;;;0.80;;
14121;SDS011;7139;48.114;11.442;2023-10-31T14:01:56;3.43;;;2.93;;
14121;SDS011;7139;48.114;11.442;2023-10-31T14:04:23;0.93;;;0.80;;
14121;SDS011;7139;48.114;11.442;2023-10-31T14:06:50;1.20;;;1.10;;
14121;SDS011;7139;48.114;11.442;2023-10-31T14:09:17;1.13;;;1.03;;
14121;SDS011;7139;48.114;11.442;2023-10-31T14:11:45;1.23;;;0.80;;
14121;SDS011;7139;48.114;11.442;2023-10-31T14:14:12;1.87;;;1.20;;
14121;SDS011;7139;48.114;11.442;2023-10-31T14:16:39;1.97;;;1.07;;
14121;SDS011;7139;48.114;11.442;2023-10-31T14:19:06;1.20;;;1.00;;
14121;SDS011;7139;48.114;11.442;2023-10-31T14:21:34;1.20;;;1.07;;
14121;SDS011;7139;48.114;11.442;2023-10-31T14:24:00;2.03;;;1.10;;
14121;SDS011;7139;48.114;11.442;2023-10-31T14:26:28;0.80;;;0.80;;
14121;SDS011;7139;48.114;11.442;2023-10-31T14:28:59;1.33;;;1.20;;
14121;SDS011;7139;48.114;11.442;2023-10-31T14:31:26;2.40;;;1.20;;
14121;SDS011;7139;48.114;11.442;2023-10-31T14:33:53;2.43;;;1.03;;
14121;SDS011;7139;48.114;11.442;2023-10-31T14:36:19;1.83;;;1.17;;
14121;SDS011;7139;48.114;11.442;2023-10-31T14:38:46;1.97;;;1.30;;
14121;SDS011;7139;48.114;11.442;2023-10-31T14:41:13;1.13;;;1.03;;
14121;SDS011;7139;48.114;11.442;2023-10-31T14:43:40;3.00;;;1.10;;
14121;SDS011;7139;48.114;11.442;2023-10-31T14:46:08;2.83;;;1.10;;
14121;SDS011;7139;48.114;11.442;2023-10-31T14:48:35;5.30;;;1.73;;
14121;SDS011;7139;48.114;11.442;2023-10-31T14:51:02;2.27;;;1.27;;
14121;SDS011;7139;48.114;11.442;2023-10-31T14:53:29;2.60;;;1.67;;